sensor_id;sensor_type;location;lat;lon;timestamp;P1;durP1;ratioP1;P2;durP2;ratioP2
74541;SDS011;63015;45.378;20.360;2022-11-20T00:00:34;18.70;;;9.40;;
74541;SDS011;63015;45.378;20.360;2022-11-20T00:02:34;16.92;;;3.85;;
74541;SDS011;63015;45.378;20.360;2022-11-20T00:04:35;17.38;;;7.50;;
74541;SDS011;63015;45.378;20.360;2022-11-20T00:06:35;9.60;;;4.45;;
74541;SDS011;63015;45.378;20.360;2022-11-20T00:08:36;9.32;;;3.53;;
74541;SDS011;63015;45.378;20.360;2022-11-20T00:10:38;12.35;;;5.65;;
74541;SDS011;63015;45.378;20.360;2022-11-20T00:12:39;13.13;;;6.95;;
74541;SDS011;63015;45.378;20.360;2022-11-20T00:14:39;8.48;;;3.88;;
74541;SDS011;63015;45.378;20.360;2022-11-20T00:16:41;15.60;;;6.35;;
74541;SDS011;63015;45.378;20.360;2022-11-20T00:18:42;12.85;;;5.63;;
74541;SDS011;63015;45.378;20.360;2022-11-20T00:20:43;14.40;;;6.75;;
74541;SDS011;63015;45.378;20.360;2022-11-20T00:22:44;6.53;;;3.30;;
74541;SDS011;63015;45.378;20.360;2022-11-20T00:24:45;10.63;;;4.50;;
74541;SDS011;63015;45.378;20.360;2022-11-20T00:26:45;10.55;;;4.38;;
74541;SDS011;63015;45.378;20.360;2022-11-20T00:28:52;17.17;;;8.02;;
74541;SDS011;63015;45.378;20.360;2022-11-20T00:31:01;8.93;;;4.18;;
74541;SDS011;63015;45.378;20.360;2022-11-20T00:33:22;14.40;;;6.40;;
74541;SDS011;63015;45.378;20.360;2022-11-20T00:35:25;13.90;;;5.28;;
74541;SDS011;63015;45.378;20.360;2022-11-20T00:37:26;5.82;;;3.05;;
74541;SDS011;63015;45.378;20.360;2022-11-20T00:39:26;11.90;;;5.45;;
74541;SDS011;63015;45.378;20.360;2022-11-20T00:41:27;11.23;;;5.25;;
74541;SDS011;63015;45.378;20.360;2022-11-20T00:43:29;17.67;;;8.18;;
74541;SDS011;63015;45.378;20.360;2022-11-20T00:45:30;11.75;;;5.60;;
74541;SDS011;63015;45.378;20.360;2022-11-20T00:47:30;13.48;;;6.40;;
74541;SDS011;63015;45.378;20.360;2022-11-20T00:49:31;12.95;;;5.60;;
74541;SDS011;63015;45.378;20.360;2022-11-20T00:51:31;12.40;;;5.72;;
74541;SDS011;63015;45.378;20.360;2022-11-20T00:53:32;14.77;;;6.95;;
74541;SDS011;63015;45.378;20.360;2022-11-20T00:55:33;17.77;;;7.70;;
74541;SDS011;63015;45.378;20.360;2022-11-20T00:57:33;19.17;;;9.43;;
74541;SDS011;63015;45.378;20.360;2022-11-20T00:59:34;13.43;;;5.63;;
74541;SDS011;63015;45.378;20.360;2022-11-20T01:01:34;9.05;;;4.53;;
74541;SDS011;63015;45.378;20.360;2022-11-20T01:03:40;17.13;;;8.18;;
74541;SDS011;63015;45.378;20.360;2022-11-20T01:05:44;16.02;;;7.55;;
74541;SDS011;63015;45.378;20.360;2022-11-20T01:07:45;11.82;;;6.00;;
74541;SDS011;63015;45.378;20.360;2022-11-20T01:09:45;15.23;;;7.25;;
74541;SDS011;63015;45.378;20.360;2022-11-20T01:11:46;13.40;;;5.15;;
74541;SDS011;63015;45.378;20.360;2022-11-20T01:13:47;18.08;;;7.57;;
74541;SDS011;63015;45.378;20.360;2022-11-20T01:15:49;12.75;;;5.10;;
74541;SDS011;63015;45.378;20.360;2022-11-20T01:17:49;16.23;;;7.47;;
74541;SDS011;63015;45.378;20.360;2022-11-20T01:19:50;15.75;;;6.72;;
74541;SDS011;63015;45.378;20.360;2022-11-20T01:21:52;17.55;;;7.95;;
74541;SDS011;63015;45.378;20.360;2022-11-20T01:23:54;14.55;;;6.90;;
74541;SDS011;63015;45.378;20.360;2022-11-20T01:25:54;9.73;;;4.72;;
74541;SDS011;63015;45.378;20.360;2022-11-20T01:27:55;9.88;;;4.93;;
74541;SDS011;63015;45.378;20.360;2022-11-20T01:29:56;11.35;;;5.47;;
74541;SDS011;63015;45.378;20.360;2022-11-20T01:31:56;11.52;;;5.07;;
74541;SDS011;63015;45.378;20.360;2022-11-20T01:33:58;13.52;;;6.25;;
74541;SDS011;63015;45.378;20.360;2022-11-20T01:36:03;10.13;;;4.80;;
74541;SDS011;63015;45.378;20.360;2022-11-20T01:38:05;14.13;;;5.95;;
74541;SDS011;63015;45.378;20.360;2022-11-20T01:40:06;14.75;;;6.70;;
74541;SDS011;63015;45.378;20.360;2022-11-20T01:42:07;9.32;;;4.93;;
74541;SDS011;63015;45.378;20.360;2022-11-20T01:46:53;10.65;;;4.68;;
74541;SDS011;63015;45.378;20.360;2022-11-20T01:49:02;13.55;;;5.35;;
74541;SDS011;63015;45.378;20.360;2022-11-20T01:53:25;11.45;;;5.22;;
74541;SDS011;63015;45.378;20.360;2022-11-20T01:55:32;9.25;;;4.07;;
74541;SDS011;63015;45.378;20.360;2022-11-20T01:57:35;10.25;;;4.75;;
74541;SDS011;63015;45.378;20.360;2022-11-20T01:59:39;8.70;;;4.10;;
74541;SDS011;63015;45.378;20.360;2022-11-20T02:01:45;10.60;;;4.28;;
74541;SDS011;63015;45.378;20.360;2022-11-20T02:03:46;9.55;;;4.88;;
74541;SDS011;63015;45.378;20.360;2022-11-20T02:05:50;11.20;;;4.95;;
74541;SDS011;63015;45.378;20.360;2022-11-20T02:07:52;13.90;;;6.22;;
74541;SDS011;63015;45.378;20.360;2022-11-20T02:09:54;12.00;;;5.38;;
74541;SDS011;63015;45.378;20.360;2022-11-20T02:11:54;10.55;;;4.38;;
74541;SDS011;63015;45.378;20.360;2022-11-20T02:13:56;14.18;;;6.38;;
74541;SDS011;63015;45.378;20.360;2022-11-20T02:15:57;10.75;;;4.85;;
74541;SDS011;63015;45.378;20.360;2022-11-20T02:17:57;11.00;;;4.82;;
74541;SDS011;63015;45.378;20.360;2022-11-20T02:19:58;12.13;;;5.30;;
74541;SDS011;63015;45.378;20.360;2022-11-20T02:22:10;11.68;;;5.15;;
74541;SDS011;63015;45.378;20.360;2022-11-20T02:24:18;16.88;;;6.70;;
74541;SDS011;63015;45.378;20.360;2022-11-20T02:26:21;13.93;;;5.63;;
74541;SDS011;63015;45.378;20.360;2022-11-20T02:28:23;6.78;;;3.15;;
74541;SDS011;63015;45.378;20.360;2022-11-20T02:30:24;14.23;;;5.57;;
74541;SDS011;63015;45.378;20.360;2022-11-20T02:32:26;11.90;;;4.65;;
74541;SDS011;63015;45.378;20.360;2022-11-20T02:34:29;9.82;;;4.28;;
74541;SDS011;63015;45.378;20.360;2022-11-20T02:36:29;8.77;;;3.90;;
74541;SDS011;63015;45.378;20.360;2022-11-20T02:38:32;10.35;;;4.63;;
74541;SDS011;63015;45.378;20.360;2022-11-20T02:40:33;14.77;;;6.22;;
74541;SDS011;63015;45.378;20.360;2022-11-20T02:42:34;12.13;;;5.32;;
74541;SDS011;63015;45.378;20.360;2022-11-20T02:44:35;10.18;;;4.85;;
74541;SDS011;63015;45.378;20.360;2022-11-20T02:46:36;10.55;;;4.57;;
74541;SDS011;63015;45.378;20.360;2022-11-20T02:48:37;11.15;;;4.55;;
74541;SDS011;63015;45.378;20.360;2022-11-20T02:50:38;11.02;;;4.40;;
74541;SDS011;63015;45.378;20.360;2022-11-20T02:52:39;8.73;;;4.20;;
74541;SDS011;63015;45.378;20.360;2022-11-20T02:54:40;10.85;;;4.57;;
74541;SDS011;63015;45.378;20.360;2022-11-20T02:56:40;9.40;;;4.60;;
74541;SDS011;63015;45.378;20.360;2022-11-20T02:58:41;15.35;;;6.28;;
74541;SDS011;63015;45.378;20.360;2022-11-20T03:00:41;8.80;;;4.03;;
74541;SDS011;63015;45.378;20.360;2022-11-20T03:02:42;9.93;;;4.72;;
74541;SDS011;63015;45.378;20.360;2022-11-20T03:04:43;11.38;;;4.65;;
74541;SDS011;63015;45.378;20.360;2022-11-20T03:06:43;11.38;;;5.97;;
74541;SDS011;63015;45.378;20.360;2022-11-20T03:08:44;9.48;;;4.55;;
74541;SDS011;63015;45.378;20.360;2022-11-20T03:10:44;9.75;;;4.47;;
74541;SDS011;63015;45.378;20.360;2022-11-20T03:12:45;13.63;;;6.28;;
74541;SDS011;63015;45.378;20.360;2022-11-20T03:14:45;14.48;;;5.95;;
74541;SDS011;63015;45.378;20.360;2022-11-20T03:16:46;9.13;;;3.58;;
74541;SDS011;63015;45.378;20.360;2022-11-20T03:18:47;8.63;;;4.57;;
74541;SDS011;63015;45.378;20.360;2022-11-20T03:20:48;9.63;;;4.30;;
74541;SDS011;63015;45.378;20.360;2022-11-20T03:22:49;9.77;;;4.35;;
74541;SDS011;63015;45.378;20.360;2022-11-20T03:24:49;13.35;;;6.07;;
74541;SDS011;63015;45.378;20.360;2022-11-20T03:26:51;5.97;;;2.58;;
74541;SDS011;63015;45.378;20.360;2022-11-20T03:28:52;13.60;;;6.05;;
74541;SDS011;63015;45.378;20.360;2022-11-20T03:31:05;12.07;;;4.93;;
74541;SDS011;63015;45.378;20.360;2022-11-20T03:33:06;13.73;;;5.85;;
74541;SDS011;63015;45.378;20.360;2022-11-20T03:35:07;7.00;;;3.67;;
74541;SDS011;63015;45.378;20.360;2022-11-20T03:37:08;12.13;;;4.82;;
74541;SDS011;63015;45.378;20.360;2022-11-20T03:39:09;11.60;;;4.80;;
74541;SDS011;63015;45.378;20.360;2022-11-20T03:41:12;11.45;;;5.07;;
74541;SDS011;63015;45.378;20.360;2022-11-20T03:43:14;8.48;;;4.07;;
74541;SDS011;63015;45.378;20.360;2022-11-20T03:45:15;7.68;;;3.42;;
74541;SDS011;63015;45.378;20.360;2022-11-20T03:47:17;6.75;;;3.25;;
74541;SDS011;63015;45.378;20.360;2022-11-20T03:49:18;12.80;;;5.03;;
74541;SDS011;63015;45.378;20.360;2022-11-20T03:51:19;6.95;;;3.22;;
74541;SDS011;63015;45.378;20.360;2022-11-20T03:53:20;9.70;;;4.85;;
74541;SDS011;63015;45.378;20.360;2022-11-20T03:55:21;10.48;;;5.00;;
74541;SDS011;63015;45.378;20.360;2022-11-20T03:57:21;9.45;;;4.30;;
74541;SDS011;63015;45.378;20.360;2022-11-20T03:59:22;7.38;;;2.88;;
74541;SDS011;63015;45.378;20.360;2022-11-20T04:01:26;7.78;;;2.78;;
74541;SDS011;63015;45.378;20.360;2022-11-20T04:03:29;8.00;;;3.22;;
74541;SDS011;63015;45.378;20.360;2022-11-20T04:05:29;7.82;;;3.30;;
74541;SDS011;63015;45.378;20.360;2022-11-20T04:07:30;6.38;;;3.00;;
74541;SDS011;63015;45.378;20.360;2022-11-20T04:09:31;6.10;;;2.30;;
74541;SDS011;63015;45.378;20.360;2022-11-20T04:11:33;9.05;;;4.20;;
74541;SDS011;63015;45.378;20.360;2022-11-20T04:13:36;8.25;;;3.13;;
74541;SDS011;63015;45.378;20.360;2022-11-20T04:15:36;8.80;;;4.18;;
74541;SDS011;63015;45.378;20.360;2022-11-20T04:17:37;5.30;;;2.55;;
74541;SDS011;63015;45.378;20.360;2022-11-20T04:19:38;8.70;;;4.03;;
74541;SDS011;63015;45.378;20.360;2022-11-20T04:21:38;10.05;;;4.45;;
74541;SDS011;63015;45.378;20.360;2022-11-20T04:23:39;10.48;;;4.85;;
74541;SDS011;63015;45.378;20.360;2022-11-20T04:25:39;11.73;;;4.93;;
74541;SDS011;63015;45.378;20.360;2022-11-20T04:27:40;8.43;;;3.72;;
74541;SDS011;63015;45.378;20.360;2022-11-20T04:29:40;6.22;;;2.63;;
74541;SDS011;63015;45.378;20.360;2022-11-20T04:31:41;8.50;;;3.78;;
74541;SDS011;63015;45.378;20.360;2022-11-20T04:33:42;10.23;;;4.75;;
74541;SDS011;63015;45.378;20.360;2022-11-20T04:35:43;13.23;;;4.60;;
74541;SDS011;63015;45.378;20.360;2022-11-20T04:37:47;12.75;;;5.97;;
74541;SDS011;63015;45.378;20.360;2022-11-20T04:39:48;10.07;;;4.20;;
74541;SDS011;63015;45.378;20.360;2022-11-20T04:41:48;7.10;;;2.83;;
74541;SDS011;63015;45.378;20.360;2022-11-20T04:44:09;8.60;;;3.75;;
74541;SDS011;63015;45.378;20.360;2022-11-20T04:46:09;6.10;;;3.03;;
74541;SDS011;63015;45.378;20.360;2022-11-20T04:48:10;10.75;;;5.05;;
74541;SDS011;63015;45.378;20.360;2022-11-20T04:50:10;4.25;;;2.17;;
74541;SDS011;63015;45.378;20.360;2022-11-20T04:52:11;8.80;;;4.25;;
74541;SDS011;63015;45.378;20.360;2022-11-20T04:54:12;7.50;;;3.05;;
74541;SDS011;63015;45.378;20.360;2022-11-20T04:56:13;11.07;;;4.88;;
74541;SDS011;63015;45.378;20.360;2022-11-20T04:58:13;8.90;;;3.78;;
74541;SDS011;63015;45.378;20.360;2022-11-20T05:00:15;9.38;;;5.07;;
74541;SDS011;63015;45.378;20.360;2022-11-20T05:02:16;9.43;;;5.05;;
74541;SDS011;63015;45.378;20.360;2022-11-20T05:04:16;10.85;;;4.65;;
74541;SDS011;63015;45.378;20.360;2022-11-20T05:06:18;13.32;;;5.78;;
74541;SDS011;63015;45.378;20.360;2022-11-20T05:08:20;11.13;;;5.22;;
74541;SDS011;63015;45.378;20.360;2022-11-20T05:10:20;9.32;;;4.53;;
74541;SDS011;63015;45.378;20.360;2022-11-20T05:12:21;11.45;;;5.72;;
74541;SDS011;63015;45.378;20.360;2022-11-20T05:14:22;8.00;;;4.22;;
74541;SDS011;63015;45.378;20.360;2022-11-20T05:16:23;15.02;;;4.75;;
74541;SDS011;63015;45.378;20.360;2022-11-20T05:18:24;14.48;;;7.10;;
74541;SDS011;63015;45.378;20.360;2022-11-20T05:20:24;12.23;;;5.80;;
74541;SDS011;63015;45.378;20.360;2022-11-20T05:22:25;11.20;;;5.32;;
74541;SDS011;63015;45.378;20.360;2022-11-20T05:24:26;9.38;;;4.60;;
74541;SDS011;63015;45.378;20.360;2022-11-20T05:26:26;13.80;;;6.50;;
74541;SDS011;63015;45.378;20.360;2022-11-20T05:28:27;9.90;;;4.47;;
74541;SDS011;63015;45.378;20.360;2022-11-20T05:30:29;12.63;;;5.97;;
74541;SDS011;63015;45.378;20.360;2022-11-20T05:32:29;14.27;;;6.97;;
74541;SDS011;63015;45.378;20.360;2022-11-20T05:34:30;17.83;;;8.02;;
74541;SDS011;63015;45.378;20.360;2022-11-20T05:36:30;11.45;;;4.72;;
74541;SDS011;63015;45.378;20.360;2022-11-20T05:38:31;10.90;;;5.53;;
74541;SDS011;63015;45.378;20.360;2022-11-20T05:40:32;9.38;;;5.05;;
74541;SDS011;63015;45.378;20.360;2022-11-20T05:42:33;10.25;;;5.13;;
74541;SDS011;63015;45.378;20.360;2022-11-20T05:44:33;14.63;;;6.22;;
74541;SDS011;63015;45.378;20.360;2022-11-20T05:46:34;9.48;;;4.43;;
74541;SDS011;63015;45.378;20.360;2022-11-20T05:48:35;13.20;;;6.43;;
74541;SDS011;63015;45.378;20.360;2022-11-20T05:50:36;17.90;;;8.65;;
74541;SDS011;63015;45.378;20.360;2022-11-20T05:52:36;15.18;;;6.07;;
74541;SDS011;63015;45.378;20.360;2022-11-20T05:54:37;15.73;;;8.48;;
74541;SDS011;63015;45.378;20.360;2022-11-20T05:56:38;14.98;;;6.57;;
74541;SDS011;63015;45.378;20.360;2022-11-20T05:58:38;16.40;;;7.63;;
74541;SDS011;63015;45.378;20.360;2022-11-20T06:00:39;13.38;;;6.43;;
74541;SDS011;63015;45.378;20.360;2022-11-20T06:02:40;13.27;;;6.88;;
74541;SDS011;63015;45.378;20.360;2022-11-20T06:04:40;10.52;;;5.20;;
74541;SDS011;63015;45.378;20.360;2022-11-20T06:06:41;17.65;;;8.00;;
74541;SDS011;63015;45.378;20.360;2022-11-20T06:08:42;18.55;;;8.73;;
74541;SDS011;63015;45.378;20.360;2022-11-20T06:10:43;17.83;;;7.68;;
74541;SDS011;63015;45.378;20.360;2022-11-20T06:12:43;15.48;;;6.85;;
74541;SDS011;63015;45.378;20.360;2022-11-20T06:14:44;14.45;;;7.00;;
74541;SDS011;63015;45.378;20.360;2022-11-20T06:16:44;18.75;;;8.18;;
74541;SDS011;63015;45.378;20.360;2022-11-20T06:18:45;13.52;;;6.47;;
74541;SDS011;63015;45.378;20.360;2022-11-20T06:20:47;10.35;;;5.05;;
74541;SDS011;63015;45.378;20.360;2022-11-20T06:22:48;7.07;;;4.00;;
74541;SDS011;63015;45.378;20.360;2022-11-20T06:24:48;17.17;;;8.13;;
74541;SDS011;63015;45.378;20.360;2022-11-20T06:26:49;12.80;;;6.32;;
74541;SDS011;63015;45.378;20.360;2022-11-20T06:28:50;11.05;;;4.88;;
74541;SDS011;63015;45.378;20.360;2022-11-20T06:30:51;12.98;;;6.22;;
74541;SDS011;63015;45.378;20.360;2022-11-20T06:32:52;14.57;;;6.82;;
74541;SDS011;63015;45.378;20.360;2022-11-20T06:34:52;22.05;;;10.25;;
74541;SDS011;63015;45.378;20.360;2022-11-20T06:36:53;16.48;;;8.02;;
74541;SDS011;63015;45.378;20.360;2022-11-20T06:38:53;18.67;;;7.90;;
74541;SDS011;63015;45.378;20.360;2022-11-20T06:40:54;9.70;;;5.32;;
74541;SDS011;63015;45.378;20.360;2022-11-20T06:42:55;26.52;;;12.35;;
74541;SDS011;63015;45.378;20.360;2022-11-20T06:44:55;22.65;;;10.13;;
74541;SDS011;63015;45.378;20.360;2022-11-20T06:46:56;22.60;;;9.73;;
74541;SDS011;63015;45.378;20.360;2022-11-20T06:48:56;17.40;;;8.60;;
74541;SDS011;63015;45.378;20.360;2022-11-20T06:50:58;17.60;;;7.53;;
74541;SDS011;63015;45.378;20.360;2022-11-20T06:53:02;20.58;;;9.55;;
74541;SDS011;63015;45.378;20.360;2022-11-20T06:55:04;16.88;;;7.32;;
74541;SDS011;63015;45.378;20.360;2022-11-20T06:57:05;15.32;;;6.85;;
74541;SDS011;63015;45.378;20.360;2022-11-20T06:59:05;25.38;;;11.00;;
74541;SDS011;63015;45.378;20.360;2022-11-20T07:01:08;19.42;;;8.02;;
74541;SDS011;63015;45.378;20.360;2022-11-20T07:03:11;24.35;;;10.82;;
74541;SDS011;63015;45.378;20.360;2022-11-20T07:05:12;17.40;;;7.65;;
74541;SDS011;63015;45.378;20.360;2022-11-20T07:07:13;20.30;;;9.05;;
74541;SDS011;63015;45.378;20.360;2022-11-20T07:09:13;15.07;;;7.82;;
74541;SDS011;63015;45.378;20.360;2022-11-20T07:11:14;16.33;;;7.07;;
74541;SDS011;63015;45.378;20.360;2022-11-20T07:13:14;16.80;;;7.30;;
74541;SDS011;63015;45.378;20.360;2022-11-20T07:15:15;27.65;;;13.52;;
74541;SDS011;63015;45.378;20.360;2022-11-20T07:17:15;23.60;;;10.70;;
74541;SDS011;63015;45.378;20.360;2022-11-20T07:19:16;24.15;;;11.77;;
74541;SDS011;63015;45.378;20.360;2022-11-20T07:21:17;20.50;;;10.05;;
74541;SDS011;63015;45.378;20.360;2022-11-20T07:23:17;20.52;;;9.15;;
74541;SDS011;63015;45.378;20.360;2022-11-20T07:25:18;15.77;;;6.13;;
74541;SDS011;63015;45.378;20.360;2022-11-20T07:27:18;12.02;;;6.22;;
74541;SDS011;63015;45.378;20.360;2022-11-20T07:29:19;24.40;;;11.15;;
74541;SDS011;63015;45.378;20.360;2022-11-20T07:31:19;15.40;;;8.27;;
74541;SDS011;63015;45.378;20.360;2022-11-20T07:33:20;14.10;;;6.80;;
74541;SDS011;63015;45.378;20.360;2022-11-20T07:35:21;18.55;;;8.57;;
74541;SDS011;63015;45.378;20.360;2022-11-20T07:37:22;16.08;;;6.65;;
74541;SDS011;63015;45.378;20.360;2022-11-20T07:39:23;20.77;;;9.77;;
74541;SDS011;63015;45.378;20.360;2022-11-20T07:41:24;21.92;;;9.15;;
74541;SDS011;63015;45.378;20.360;2022-11-20T07:43:24;26.85;;;12.18;;
74541;SDS011;63015;45.378;20.360;2022-11-20T07:45:25;23.05;;;10.45;;
74541;SDS011;63015;45.378;20.360;2022-11-20T07:47:26;22.95;;;10.07;;
74541;SDS011;63015;45.378;20.360;2022-11-20T07:49:26;13.40;;;6.28;;
74541;SDS011;63015;45.378;20.360;2022-11-20T07:51:27;13.80;;;5.32;;
74541;SDS011;63015;45.378;20.360;2022-11-20T07:53:29;24.30;;;11.50;;
74541;SDS011;63015;45.378;20.360;2022-11-20T07:55:29;14.05;;;6.38;;
74541;SDS011;63015;45.378;20.360;2022-11-20T07:57:30;17.13;;;7.00;;
74541;SDS011;63015;45.378;20.360;2022-11-20T07:59:31;12.60;;;4.70;;
74541;SDS011;63015;45.378;20.360;2022-11-20T08:01:32;17.10;;;7.07;;
74541;SDS011;63015;45.378;20.360;2022-11-20T08:03:32;17.63;;;8.48;;
74541;SDS011;63015;45.378;20.360;2022-11-20T08:05:33;15.05;;;6.47;;
74541;SDS011;63015;45.378;20.360;2022-11-20T08:07:35;13.73;;;6.30;;
74541;SDS011;63015;45.378;20.360;2022-11-20T08:09:37;18.65;;;8.82;;
74541;SDS011;63015;45.378;20.360;2022-11-20T08:11:38;15.18;;;6.97;;
74541;SDS011;63015;45.378;20.360;2022-11-20T08:13:57;12.55;;;5.60;;
74541;SDS011;63015;45.378;20.360;2022-11-20T08:16:13;21.63;;;9.80;;
74541;SDS011;63015;45.378;20.360;2022-11-20T08:18:14;18.90;;;8.75;;
74541;SDS011;63015;45.378;20.360;2022-11-20T08:20:15;23.05;;;11.10;;
74541;SDS011;63015;45.378;20.360;2022-11-20T08:22:15;22.15;;;11.23;;
74541;SDS011;63015;45.378;20.360;2022-11-20T08:24:17;11.10;;;5.75;;
74541;SDS011;63015;45.378;20.360;2022-11-20T08:26:18;23.73;;;10.55;;
74541;SDS011;63015;45.378;20.360;2022-11-20T08:28:20;16.50;;;6.65;;
74541;SDS011;63015;45.378;20.360;2022-11-20T08:30:20;26.25;;;11.27;;
74541;SDS011;63015;45.378;20.360;2022-11-20T08:32:21;18.80;;;8.43;;
74541;SDS011;63015;45.378;20.360;2022-11-20T08:34:21;23.50;;;10.38;;
74541;SDS011;63015;45.378;20.360;2022-11-20T08:36:22;14.10;;;6.18;;
74541;SDS011;63015;45.378;20.360;2022-11-20T08:38:23;23.23;;;10.77;;
74541;SDS011;63015;45.378;20.360;2022-11-20T08:40:24;20.90;;;10.52;;
74541;SDS011;63015;45.378;20.360;2022-11-20T08:42:24;17.73;;;8.40;;
74541;SDS011;63015;45.378;20.360;2022-11-20T08:44:25;18.80;;;9.13;;
74541;SDS011;63015;45.378;20.360;2022-11-20T08:46:26;24.50;;;10.07;;
74541;SDS011;63015;45.378;20.360;2022-11-20T08:48:30;20.20;;;10.13;;
74541;SDS011;63015;45.378;20.360;2022-11-20T08:50:31;21.35;;;9.82;;
74541;SDS011;63015;45.378;20.360;2022-11-20T08:52:32;23.35;;;10.38;;
74541;SDS011;63015;45.378;20.360;2022-11-20T08:54:33;22.05;;;9.93;;
74541;SDS011;63015;45.378;20.360;2022-11-20T08:56:34;24.45;;;10.93;;
74541;SDS011;63015;45.378;20.360;2022-11-20T08:58:36;19.48;;;8.18;;
74541;SDS011;63015;45.378;20.360;2022-11-20T09:00:37;18.58;;;9.35;;
74541;SDS011;63015;45.378;20.360;2022-11-20T09:02:37;23.45;;;9.27;;
74541;SDS011;63015;45.378;20.360;2022-11-20T09:04:38;21.48;;;10.13;;
74541;SDS011;63015;45.378;20.360;2022-11-20T09:06:38;21.67;;;10.05;;
74541;SDS011;63015;45.378;20.360;2022-11-20T09:08:39;21.55;;;10.05;;
74541;SDS011;63015;45.378;20.360;2022-11-20T09:10:40;17.98;;;8.55;;
74541;SDS011;63015;45.378;20.360;2022-11-20T09:12:40;19.52;;;8.18;;
74541;SDS011;63015;45.378;20.360;2022-11-20T09:14:41;18.77;;;9.20;;
74541;SDS011;63015;45.378;20.360;2022-11-20T09:16:41;21.38;;;10.10;;
74541;SDS011;63015;45.378;20.360;2022-11-20T09:18:42;22.67;;;10.00;;
74541;SDS011;63015;45.378;20.360;2022-11-20T09:20:43;20.58;;;9.55;;
74541;SDS011;63015;45.378;20.360;2022-11-20T09:22:44;15.57;;;7.20;;
74541;SDS011;63015;45.378;20.360;2022-11-20T09:24:45;23.90;;;10.63;;
74541;SDS011;63015;45.378;20.360;2022-11-20T09:26:45;23.98;;;10.40;;
74541;SDS011;63015;45.378;20.360;2022-11-20T09:28:46;18.08;;;7.88;;
74541;SDS011;63015;45.378;20.360;2022-11-20T09:30:47;14.85;;;6.18;;
74541;SDS011;63015;45.378;20.360;2022-11-20T09:32:48;18.85;;;8.70;;
74541;SDS011;63015;45.378;20.360;2022-11-20T09:34:48;17.95;;;7.32;;
74541;SDS011;63015;45.378;20.360;2022-11-20T09:36:49;22.58;;;10.10;;
74541;SDS011;63015;45.378;20.360;2022-11-20T09:38:49;22.08;;;10.95;;
74541;SDS011;63015;45.378;20.360;2022-11-20T09:40:53;20.08;;;8.80;;
74541;SDS011;63015;45.378;20.360;2022-11-20T09:45:23;20.05;;;9.18;;
74541;SDS011;63015;45.378;20.360;2022-11-20T09:55:00;19.45;;;8.27;;
74541;SDS011;63015;45.378;20.360;2022-11-20T09:57:25;17.30;;;7.80;;
74541;SDS011;63015;45.378;20.360;2022-11-20T10:01:34;21.17;;;9.05;;
74541;SDS011;63015;45.378;20.360;2022-11-20T10:05:53;18.25;;;8.70;;
74541;SDS011;63015;45.378;20.360;2022-11-20T10:10:16;18.88;;;8.45;;
74541;SDS011;63015;45.378;20.360;2022-11-20T10:12:39;17.98;;;8.60;;
74541;SDS011;63015;45.378;20.360;2022-11-20T10:18:21;16.27;;;7.55;;
74541;SDS011;63015;45.378;20.360;2022-11-20T10:20:20;17.17;;;7.68;;
74541;SDS011;63015;45.378;20.360;2022-11-20T10:22:52;22.35;;;9.60;;
74541;SDS011;63015;45.378;20.360;2022-11-20T10:25:20;18.40;;;8.48;;
74541;SDS011;63015;45.378;20.360;2022-11-20T10:29:36;11.65;;;5.63;;
74541;SDS011;63015;45.378;20.360;2022-11-20T10:31:40;21.00;;;8.68;;
74541;SDS011;63015;45.378;20.360;2022-11-20T10:33:44;16.13;;;6.75;;
74541;SDS011;63015;45.378;20.360;2022-11-20T10:37:56;11.10;;;4.40;;
74541;SDS011;63015;45.378;20.360;2022-11-20T10:40:05;19.45;;;9.27;;
74541;SDS011;63015;45.378;20.360;2022-11-20T10:44:47;20.23;;;10.00;;
74541;SDS011;63015;45.378;20.360;2022-11-20T10:47:03;22.13;;;9.48;;
74541;SDS011;63015;45.378;20.360;2022-11-20T10:49:10;18.60;;;8.27;;
74541;SDS011;63015;45.378;20.360;2022-11-20T10:53:51;23.80;;;10.95;;
74541;SDS011;63015;45.378;20.360;2022-11-20T10:56:00;21.70;;;10.23;;
74541;SDS011;63015;45.378;20.360;2022-11-20T11:00:11;20.17;;;8.70;;
74541;SDS011;63015;45.378;20.360;2022-11-20T11:02:14;18.85;;;9.18;;
74541;SDS011;63015;45.378;20.360;2022-11-20T11:04:32;18.40;;;8.98;;
74541;SDS011;63015;45.378;20.360;2022-11-20T11:06:42;18.48;;;7.93;;
74541;SDS011;63015;45.378;20.360;2022-11-20T11:08:47;21.95;;;9.32;;
74541;SDS011;63015;45.378;20.360;2022-11-20T11:10:55;20.77;;;9.07;;
74541;SDS011;63015;45.378;20.360;2022-11-20T11:12:59;19.45;;;9.43;;
74541;SDS011;63015;45.378;20.360;2022-11-20T11:14:59;19.02;;;8.40;;
74541;SDS011;63015;45.378;20.360;2022-11-20T11:17:00;14.75;;;7.30;;
74541;SDS011;63015;45.378;20.360;2022-11-20T11:19:11;18.13;;;8.30;;
74541;SDS011;63015;45.378;20.360;2022-11-20T11:21:13;16.67;;;7.65;;
74541;SDS011;63015;45.378;20.360;2022-11-20T11:23:37;16.73;;;8.20;;
74541;SDS011;63015;45.378;20.360;2022-11-20T11:25:42;19.75;;;8.90;;
74541;SDS011;63015;45.378;20.360;2022-11-20T11:30:19;16.88;;;8.15;;
74541;SDS011;63015;45.378;20.360;2022-11-20T11:32:21;18.98;;;9.30;;
74541;SDS011;63015;45.378;20.360;2022-11-20T11:34:22;18.20;;;8.45;;
74541;SDS011;63015;45.378;20.360;2022-11-20T11:36:22;20.17;;;10.32;;
74541;SDS011;63015;45.378;20.360;2022-11-20T11:40:33;24.85;;;11.18;;
74541;SDS011;63015;45.378;20.360;2022-11-20T11:42:41;22.33;;;10.60;;
74541;SDS011;63015;45.378;20.360;2022-11-20T11:44:44;21.95;;;8.38;;
74541;SDS011;63015;45.378;20.360;2022-11-20T11:47:10;17.25;;;7.75;;
74541;SDS011;63015;45.378;20.360;2022-11-20T11:49:21;21.38;;;9.35;;
74541;SDS011;63015;45.378;20.360;2022-11-20T11:51:23;25.50;;;11.70;;
74541;SDS011;63015;45.378;20.360;2022-11-20T11:53:26;15.85;;;6.30;;
74541;SDS011;63015;45.378;20.360;2022-11-20T11:55:30;22.77;;;11.13;;
74541;SDS011;63015;45.378;20.360;2022-11-20T12:02:56;21.50;;;10.10;;
74541;SDS011;63015;45.378;20.360;2022-11-20T12:06:58;22.98;;;10.02;;
74541;SDS011;63015;45.378;20.360;2022-11-20T12:09:10;23.13;;;10.38;;
74541;SDS011;63015;45.378;20.360;2022-11-20T12:15:34;22.67;;;10.00;;
74541;SDS011;63015;45.378;20.360;2022-11-20T12:17:44;24.08;;;11.27;;
74541;SDS011;63015;45.378;20.360;2022-11-20T12:19:45;21.38;;;10.45;;
74541;SDS011;63015;45.378;20.360;2022-11-20T12:21:58;19.63;;;9.38;;
74541;SDS011;63015;45.378;20.360;2022-11-20T12:26:32;23.08;;;10.63;;
74541;SDS011;63015;45.378;20.360;2022-11-20T12:29:01;20.70;;;10.27;;
74541;SDS011;63015;45.378;20.360;2022-11-20T12:31:45;22.98;;;10.23;;
74541;SDS011;63015;45.378;20.360;2022-11-20T12:36:19;15.15;;;7.32;;
74541;SDS011;63015;45.378;20.360;2022-11-20T12:48:20;22.63;;;10.25;;
74541;SDS011;63015;45.378;20.360;2022-11-20T12:50:57;22.38;;;10.55;;
74541;SDS011;63015;45.378;20.360;2022-11-20T13:00:57;19.83;;;8.35;;
74541;SDS011;63015;45.378;20.360;2022-11-20T13:05:27;12.82;;;5.43;;
74541;SDS011;63015;45.378;20.360;2022-11-20T13:07:37;10.93;;;5.07;;
74541;SDS011;63015;45.378;20.360;2022-11-20T13:09:41;20.02;;;9.63;;
74541;SDS011;63015;45.378;20.360;2022-11-20T13:11:58;19.15;;;8.65;;
74541;SDS011;63015;45.378;20.360;2022-11-20T13:14:27;16.50;;;7.82;;
74541;SDS011;63015;45.378;20.360;2022-11-20T13:18:39;19.73;;;8.80;;